Time;durP1;ratioP1;P1;durP2;ratioP2;P2;SDS_P1;SDS_P2;PMS_P1;PMS_P2;Temp;Humidity;BMP_temperature;BMP_pressure;BME280_temperature;BME280_humidity;BME280_pressure;Samples;Min_cycle;Max_cycle;Signal;HPM_P1;HPM_P2
2023/02/22 00:00:58;;;;;;;4.00;2.70;;;;;;;0.26;100.00;98750.48;110443;1273;22890;-68
2023/02/22 00:03:31;;;;;;;5.20;3.60;;;;;;;0.28;100.00;98754.73;110450;1273;22980;-68
2023/02/22 00:06:03;;;;;;;5.00;3.20;;;;;;;0.26;100.00;98759.95;110439;1273;22702;-68
2023/02/22 00:08:34;;;;;;;4.90;3.10;;;;;;;0.30;100.00;98763.88;110579;1271;22196;-68
2023/02/22 00:11:07;;;;;;;6.00;3.20;;;;;;;0.34;100.00;98768.30;110475;1273;22254;-68
2023/02/22 00:13:37;;;;;;;5.50;3.50;;;;;;;0.31;100.00;98777.20;110416;1275;22178;-68
2023/02/22 00:16:05;;;;;;;5.90;3.20;;;;;;;0.28;100.00;98780.05;110453;1273;22353;-68
2023/02/22 00:18:40;;;;;;;6.30;3.90;;;;;;;0.33;100.00;98784.72;110484;1274;23374;-68
2023/02/22 00:21:12;;;;;;;4.50;3.00;;;;;;;0.31;100.00;98787.82;110473;1274;22272;-68
2023/02/22 00:23:45;;;;;;;4.20;2.90;;;;;;;0.30;100.00;98790.68;110493;1274;22860;-68
2023/02/22 00:26:17;;;;;;;5.10;2.80;;;;;;;0.27;100.00;98793.08;109448;1273;22533;-68
2023/02/22 00:28:48;;;;;;;4.10;3.10;;;;;;;0.16;100.00;98802.19;107912;1273;25443;-67
2023/02/22 00:31:16;;;;;;;5.40;3.10;;;;;;;0.10;100.00;98803.92;107663;1274;24404;-68
2023/02/22 00:33:45;;;;;;;5.20;3.40;;;;;;;0.06;100.00;98809.80;108026;1273;23441;-67
2023/02/22 00:36:14;;;;;;;5.40;3.10;;;;;;;-0.03;100.00;98815.35;107428;1275;22544;-68
2023/02/22 00:38:42;;;;;;;4.30;2.90;;;;;;;-0.05;100.00;98819.84;107440;1274;25461;-68
2023/02/22 00:41:11;;;;;;;5.70;2.80;;;;;;;-0.07;100.00;98828.20;108072;1272;23291;-68
2023/02/22 00:43:40;;;;;;;4.80;2.90;;;;;;;-0.15;100.00;98837.16;108677;1276;25406;-67
2023/02/22 00:46:08;;;;;;;7.40;3.50;;;;;;;-0.23;100.00;98840.84;107860;1272;22517;-68
2023/02/22 00:48:37;;;;;;;4.80;3.10;;;;;;;-0.22;100.00;98843.04;107692;1272;22624;-67
2023/02/22 00:51:05;;;;;;;5.10;3.00;;;;;;;-0.20;100.00;98851.30;107523;1268;22603;-68
2023/02/22 00:53:33;;;;;;;4.80;3.10;;;;;;;-0.25;100.00;98849.95;107521;1275;25337;-67
2023/02/22 00:56:01;;;;;;;5.70;2.60;;;;;;;-0.31;100.00;98855.58;107480;1275;25221;-68
2023/02/22 00:58:30;;;;;;;5.40;3.00;;;;;;;-0.30;100.00;98859.77;107697;1272;23342;-68
2023/02/22 01:00:59;;;;;;;3.90;2.60;;;;;;;-0.29;100.00;98865.63;107518;1274;23291;-68
2023/02/22 01:03:27;;;;;;;6.30;3.20;;;;;;;-0.31;100.00;98865.66;107525;1274;23003;-68
2023/02/22 01:06:01;;;;;;;4.60;3.10;;;;;;;-0.37;100.00;98870.27;109772;1269;23127;-68
2023/02/22 01:08:31;;;;;;;4.90;2.90;;;;;;;-0.35;100.00;98875.13;110440;1274;22992;-68
2023/02/22 01:10:59;;;;;;;5.10;3.10;;;;;;;-0.31;100.00;98879.65;110461;1274;22286;-69
2023/02/22 01:13:28;;;;;;;4.40;3.20;;;;;;;-0.34;100.00;98881.20;108105;1272;22522;-67
2023/02/22 01:15:56;;;;;;;4.80;3.30;;;;;;;-0.38;100.00;98889.96;107576;1269;25358;-68
2023/02/22 01:18:25;;;;;;;5.70;2.90;;;;;;;-0.34;100.00;98890.52;107674;1269;22566;-67
2023/02/22 01:20:53;;;;;;;5.20;3.20;;;;;;;-0.30;100.00;98896.27;110295;1275;22976;-68
2023/02/22 01:23:21;;;;;;;6.20;3.40;;;;;;;-0.33;100.00;98901.41;109306;1269;22601;-68
2023/02/22 01:25:50;;;;;;;4.80;3.00;;;;;;;-0.34;100.00;98901.48;107678;1272;22521;-68
2023/02/22 01:28:21;;;;;;;7.00;3.60;;;;;;;-0.32;100.00;98909.94;107605;1270;22541;-68
2023/02/22 01:30:51;;;;;;;6.10;3.70;;;;;;;-0.34;100.00;98913.67;107393;1270;25565;-68
2023/02/22 01:33:19;;;;;;;5.80;3.20;;;;;;;-0.32;100.00;98919.03;107262;1276;26367;-67
2023/02/22 01:35:49;;;;;;;5.50;3.20;;;;;;;-0.30;100.00;98917.04;107278;1275;22553;-68
2023/02/22 01:38:17;;;;;;;6.40;3.90;;;;;;;-0.35;100.00;98921.32;107413;1275;22561;-69
2023/02/22 01:40:47;;;;;;;5.30;3.40;;;;;;;-0.40;100.00;98927.98;107602;1274;22525;-68
2023/02/22 01:43:28;;;;;;;6.20;3.30;;;;;;;-0.42;100.00;98928.34;108242;1267;24264;-68
2023/02/22 01:46:20;;;;;;;8.00;4.10;;;;;;;-0.38;100.00;98932.71;107374;1272;24278;-68
2023/02/22 01:48:59;;;;;;;6.80;3.70;;;;;;;-0.40;100.00;98936.73;107455;1274;22530;-68
2023/02/22 01:51:39;;;;;;;5.60;3.70;;;;;;;-0.47;100.00;98939.52;107284;1273;25349;-67
2023/02/22 01:54:14;;;;;;;5.70;3.50;;;;;;;-0.43;100.00;98950.94;107558;1269;22527;-68
2023/02/22 01:57:15;;;;;;;7.30;3.80;;;;;;;-0.44;100.00;98949.69;107640;1275;25422;-68
2023/02/22 02:01:06;;;;;;;4.50;3.00;;;;;;;-0.41;100.00;98954.52;104602;1302;545467;-67
2023/02/22 02:03:36;;;;;;;6.00;3.20;;;;;;;-0.39;100.00;98965.71;107096;1280;25159;-67
2023/02/22 02:06:07;;;;;;;5.10;3.00;;;;;;;-0.37;100.00;98970.06;109738;1286;22325;-68
2023/02/22 02:08:38;;;;;;;4.70;3.10;;;;;;;-0.41;100.00;98975.28;109700;1286;22232;-68
2023/02/22 02:11:07;;;;;;;5.30;3.00;;;;;;;-0.44;100.00;98975.94;109605;1283;22177;-67
2023/02/22 02:13:36;;;;;;;5.30;2.80;;;;;;;-0.42;100.00;98977.39;109214;1283;456238;-68
2023/02/22 02:16:04;;;;;;;5.10;2.80;;;;;;;-0.41;100.00;98981.70;109834;1283;22297;-67
2023/02/22 02:18:33;;;;;;;5.20;3.10;;;;;;;-0.44;100.00;98980.34;109861;1283;22615;-67
2023/02/22 02:21:32;;;;;;;5.00;3.00;;;;;;;-0.47;100.00;98984.60;109845;1276;22430;-67
2023/02/22 02:24:22;;;;;;;5.00;2.90;;;;;;;-0.44;100.00;98987.81;110280;1278;22461;-67
2023/02/22 02:27:02;;;;;;;5.80;2.60;;;;;;;-0.44;100.00;98988.39;110344;1277;22235;-66
2023/02/22 02:29:51;;;;;;;5.00;2.80;;;;;;;-0.50;100.00;98988.04;110192;1270;22527;-66
2023/02/22 02:32:25;;;;;;;6.40;3.50;;;;;;;-0.51;100.00;98997.95;109994;1277;22292;-66
2023/02/22 02:35:02;;;;;;;4.30;2.80;;;;;;;-0.47;100.00;98999.20;110331;1277;22400;-67
2023/02/22 02:37:54;;;;;;;6.10;3.60;;;;;;;-0.46;100.00;99000.30;110345;1264;22285;-67
2023/02/22 02:40:35;;;;;;;5.50;3.20;;;;;;;-0.47;100.00;99007.96;109972;1277;22425;-67
2023/02/22 02:43:06;;;;;;;5.20;3.00;;;;;;;-0.52;100.00;99009.68;110261;1277;22513;-67
2023/02/22 02:46:13;;;;;;;5.00;2.80;;;;;;;-0.51;100.00;99013.36;110325;1277;22290;-67
2023/02/22 02:49:06;;;;;;;5.80;3.20;;;;;;;-0.54;100.00;99018.29;109853;1277;22282;-67
2023/02/22 02:51:37;;;;;;;5.90;3.30;;;;;;;-0.66;100.00;99020.08;110187;1277;22210;-67
2023/02/22 02:54:06;;;;;;;5.60;3.40;;;;;;;-0.68;100.00;99019.96;110190;1277;22205;-67
2023/02/22 02:56:34;;;;;;;4.30;2.90;;;;;;;-0.64;100.00;99023.46;110029;1277;23026;-67
2023/02/22 02:59:03;;;;;;;6.00;3.30;;;;;;;-0.67;100.00;99029.40;109544;1277;24218;-67
2023/02/22 03:01:45;;;;;;;6.30;3.50;;;;;;;-0.70;100.00;99028.48;107532;1274;24215;-67
2023/02/22 03:04:19;;;;;;;5.80;3.20;;;;;;;-0.70;100.00;99034.08;107528;1271;25343;-66
2023/02/22 03:07:06;;;;;;;7.20;3.50;;;;;;;-0.68;100.00;99041.23;107570;1254;22645;-66
2023/02/22 03:09:59;;;;;;;5.60;3.50;;;;;;;-0.72;100.00;99043.46;107412;1270;22568;-66
2023/02/22 03:12:57;;;;;;;7.60;3.80;;;;;;;-0.77;100.00;99050.70;107340;1274;23254;-67
2023/02/22 03:15:52;;;;;;;8.40;3.70;;;;;;;-0.82;100.00;99052.41;107423;1277;25351;-67
2023/02/22 03:18:28;;;;;;;6.80;3.60;;;;;;;-0.77;100.00;99058.40;107645;1270;24390;-67
2023/02/22 03:21:00;;;;;;;5.90;3.60;;;;;;;-0.78;100.00;99064.73;107527;1277;22956;-66
2023/02/22 03:23:55;;;;;;;6.00;3.90;;;;;;;-0.84;100.00;99068.70;107194;1278;25479;-67
2023/02/22 03:26:46;;;;;;;6.60;3.30;;;;;;;-0.88;100.00;99071.16;107001;1277;23873;-67
2023/02/22 03:29:16;;;;;;;5.80;3.80;;;;;;;-0.85;100.00;99071.19;107299;1277;22532;-67
2023/02/22 03:32:00;;;;;;;7.50;3.80;;;;;;;-0.82;100.00;99076.34;107560;1273;22532;-67
2023/02/22 03:34:40;;;;;;;5.50;3.40;;;;;;;-0.86;100.00;99082.63;107333;1277;22526;-67
2023/02/22 03:37:24;;;;;;;5.60;3.40;;;;;;;-0.88;100.00;99083.49;107289;1277;22527;-66
2023/02/22 03:39:53;;;;;;;6.70;3.50;;;;;;;-0.83;100.00;99087.88;107330;1277;25530;-67
2023/02/22 03:42:24;;;;;;;5.50;3.50;;;;;;;-0.83;100.00;99087.38;107217;1277;24509;-67
2023/02/22 03:44:53;;;;;;;6.80;3.70;;;;;;;-0.88;100.00;99092.09;110328;1277;22840;-68
2023/02/22 03:47:53;;;;;;;7.30;4.70;;;;;;;-0.88;100.00;99092.87;110145;1277;22334;-68
2023/02/22 03:50:25;;;;;;;6.90;4.00;;;;;;;-0.81;100.00;99097.05;109929;1277;22299;-67
2023/02/22 03:52:53;;;;;;;7.40;4.00;;;;;;;-0.80;100.00;99102.94;110103;1278;22295;-67
2023/02/22 03:55:27;;;;;;;6.80;4.10;;;;;;;-0.83;100.00;99102.14;110133;1277;22417;-68
2023/02/22 03:57:59;;;;;;;6.20;4.10;;;;;;;-0.84;100.00;99100.48;108685;1277;22540;-66
2023/02/22 04:00:31;;;;;;;7.70;4.30;;;;;;;-0.75;100.00;99108.28;107359;1277;25371;-67
2023/02/22 04:02:59;;;;;;;7.40;4.70;;;;;;;-0.78;100.00;99111.06;107307;1276;24371;-66
2023/02/22 04:05:27;;;;;;;7.70;4.10;;;;;;;-0.83;100.00;99112.13;107421;1270;22514;-66
2023/02/22 04:07:57;;;;;;;7.70;4.00;;;;;;;-0.84;100.00;99112.63;107754;1254;25074;-66
2023/02/22 04:10:26;;;;;;;7.10;4.40;;;;;;;-0.78;100.00;99115.78;107439;1277;23200;-67
2023/02/22 04:12:55;;;;;;;6.60;4.10;;;;;;;-0.81;100.00;99121.94;107333;1277;22546;-66
2023/02/22 04:15:27;;;;;;;7.70;4.90;;;;;;;-0.88;100.00;99130.05;107404;1277;22516;-66
2023/02/22 04:18:02;;;;;;;7.40;4.50;;;;;;;-0.89;100.00;99131.48;107409;1277;25350;-67
2023/02/22 04:20:30;;;;;;;5.50;3.40;;;;;;;-0.87;100.00;99136.48;107296;1277;23534;-67
2023/02/22 04:23:05;;;;;;;7.40;4.40;;;;;;;-0.89;100.00;99139.00;107492;1254;25415;-66
2023/02/22 04:25:33;;;;;;;6.80;3.90;;;;;;;-0.95;100.00;99140.91;107299;1270;22766;-67
2023/02/22 04:28:11;;;;;;;6.00;3.70;;;;;;;-1.03;100.00;99141.77;107284;1277;22519;-66
2023/02/22 04:30:45;;;;;;;6.80;3.70;;;;;;;-1.03;100.00;99144.19;107295;1277;25220;-66
2023/02/22 04:33:16;;;;;;;6.30;4.00;;;;;;;-1.04;100.00;99146.14;107334;1277;22519;-66
2023/02/22 04:35:45;;;;;;;8.40;4.10;;;;;;;-1.09;100.00;99151.33;107557;1270;24218;-66
2023/02/22 04:38:15;;;;;;;7.60;4.10;;;;;;;-1.15;100.00;99156.73;110272;1277;23313;-67
2023/02/22 04:40:44;;;;;;;7.70;4.10;;;;;;;-1.14;100.00;99164.17;110312;1277;22427;-67
2023/02/22 04:43:14;;;;;;;7.20;4.10;;;;;;;-1.12;100.00;99166.91;110144;1278;22307;-67
2023/02/22 04:45:43;;;;;;;7.50;5.10;;;;;;;-1.16;100.00;99172.67;110124;1278;22331;-67
2023/02/22 04:48:11;;;;;;;7.90;4.50;;;;;;;-1.23;100.00;99175.44;110077;1277;22263;-67
2023/02/22 04:50:39;;;;;;;6.60;4.10;;;;;;;-1.22;100.00;99182.02;110155;1273;22384;-67
2023/02/22 04:53:08;;;;;;;8.20;5.00;;;;;;;-1.22;100.00;99190.60;110236;1277;23651;-67
2023/02/22 04:55:40;;;;;;;7.10;4.20;;;;;;;-1.28;100.00;99197.98;110153;1276;22251;-67
2023/02/22 04:58:09;;;;;;;7.70;4.50;;;;;;;-1.28;100.00;99206.48;110181;1277;22431;-67
2023/02/22 05:00:38;;;;;;;7.40;5.30;;;;;;;-1.31;100.00;99205.83;110153;1277;22415;-67
2023/02/22 05:03:07;;;;;;;7.70;4.80;;;;;;;-1.33;100.00;99213.84;110325;1277;22371;-67
2023/02/22 05:05:37;;;;;;;7.50;4.50;;;;;;;-1.34;100.00;99217.38;110288;1276;23069;-67
2023/02/22 05:08:06;;;;;;;7.80;5.10;;;;;;;-1.43;100.00;99230.30;110345;1276;22364;-67
2023/02/22 05:10:37;;;;;;;9.00;5.30;;;;;;;-1.48;100.00;99233.70;110339;1270;22784;-67
2023/02/22 05:13:05;;;;;;;9.40;5.80;;;;;;;-1.49;100.00;99241.73;110350;1276;22391;-67
2023/02/22 05:15:33;;;;;;;9.30;5.00;;;;;;;-1.49;100.00;99245.68;110345;1276;22237;-67
2023/02/22 05:18:03;;;;;;;10.10;5.00;;;;;;;-1.55;100.00;99249.30;110302;1276;22181;-67
2023/02/22 05:20:33;;;;;;;8.50;5.00;;;;;;;-1.55;100.00;99251.61;110344;1270;23381;-67
2023/02/22 05:23:01;;;;;;;8.60;5.00;;;;;;;-1.62;100.00;99259.94;110304;1276;22198;-67
2023/02/22 05:25:30;;;;;;;7.80;4.60;;;;;;;-1.65;100.00;99266.52;110350;1270;22379;-66
2023/02/22 05:28:00;;;;;;;7.40;4.70;;;;;;;-1.62;100.00;99266.42;110159;1277;22986;-66
2023/02/22 05:30:31;;;;;;;8.00;5.30;;;;;;;-1.64;100.00;99272.67;110357;1276;23072;-66
2023/02/22 05:32:59;;;;;;;7.80;4.80;;;;;;;-1.64;100.00;99274.56;109871;1270;22990;-66
2023/02/22 05:35:28;;;;;;;7.80;5.50;;;;;;;-1.61;100.00;99286.10;107573;1271;23255;-69
2023/02/22 05:37:57;;;;;;;8.50;5.20;;;;;;;-1.61;100.00;99287.67;107632;1276;23319;-68
2023/02/22 05:40:25;;;;;;;9.30;5.20;;;;;;;-1.62;100.00;99290.89;107594;1276;22530;-69
2023/02/22 05:42:54;;;;;;;8.30;5.20;;;;;;;-1.64;100.00;99293.81;107669;1276;23306;-68
2023/02/22 05:45:24;;;;;;;8.20;5.10;;;;;;;-1.60;100.00;99294.48;107223;1277;22601;-67
2023/02/22 05:47:52;;;;;;;9.10;4.80;;;;;;;-1.63;100.00;99301.29;107360;1276;22540;-69
2023/02/22 05:50:23;;;;;;;9.60;5.50;;;;;;;-1.65;100.00;99305.88;107436;1271;25370;-69
2023/02/22 05:52:52;;;;;;;9.90;6.00;;;;;;;-1.63;100.00;99313.56;108283;1270;26726;-67
2023/02/22 05:55:21;;;;;;;9.50;5.80;;;;;;;-1.63;100.00;99314.63;107607;1270;25284;-67
2023/02/22 05:57:50;;;;;;;10.30;5.90;;;;;;;-1.65;100.00;99317.27;107807;1276;24373;-67
2023/02/22 06:00:29;;;;;;;11.40;6.60;;;;;;;-1.59;100.00;99324.21;107478;1276;25426;-67
2023/02/22 06:02:59;;;;;;;11.50;6.40;;;;;;;-1.56;100.00;99327.70;107272;1276;25391;-68
2023/02/22 06:05:28;;;;;;;11.60;6.50;;;;;;;-1.56;100.00;99328.37;107369;1277;24077;-67
2023/02/22 06:07:58;;;;;;;9.70;5.90;;;;;;;-1.52;100.00;99336.20;107409;1276;23318;-67
2023/02/22 06:10:26;;;;;;;12.00;6.70;;;;;;;-1.46;100.00;99342.21;107668;1276;24392;-67
2023/02/22 06:12:55;;;;;;;14.20;7.50;;;;;;;-1.45;100.00;99347.67;107831;1275;22569;-68
2023/02/22 06:15:23;;;;;;;12.20;7.00;;;;;;;-1.46;100.00;99352.85;107517;1276;24310;-67
2023/02/22 06:17:52;;;;;;;11.10;7.10;;;;;;;-1.44;100.00;99359.63;110432;1276;22302;-67
2023/02/22 06:20:21;;;;;;;10.90;6.90;;;;;;;-1.39;100.00;99363.05;110439;1274;22721;-68
2023/02/22 06:22:52;;;;;;;12.50;7.30;;;;;;;-1.44;100.00;99363.73;110456;1276;22210;-68
2023/02/22 06:25:24;;;;;;;11.20;6.50;;;;;;;-1.45;100.00;99368.05;110165;1276;22290;-68
2023/02/22 06:27:52;;;;;;;9.90;6.90;;;;;;;-1.50;100.00;99373.02;110314;1276;22398;-67
2023/02/22 06:30:22;;;;;;;10.90;6.40;;;;;;;-1.55;100.00;99381.55;110363;1271;22227;-68
2023/02/22 06:32:50;;;;;;;10.00;6.20;;;;;;;-1.62;100.00;99387.27;110424;1276;22401;-68
2023/02/22 06:35:19;;;;;;;10.50;6.20;;;;;;;-1.59;100.00;99386.84;109777;1276;23960;-68
2023/02/22 06:37:47;;;;;;;10.30;6.50;;;;;;;-1.57;100.00;99394.52;107466;1276;25293;-68
2023/02/22 06:40:15;;;;;;;10.20;6.40;;;;;;;-1.60;100.00;99396.56;107611;1276;23119;-68
2023/02/22 06:42:46;;;;;;;10.90;7.10;;;;;;;-1.52;100.00;99406.92;107510;1255;22549;-68
2023/02/22 06:45:15;;;;;;;13.60;8.00;;;;;;;-1.44;100.00;99409.73;107441;1276;22542;-68
2023/02/22 06:47:43;;;;;;;12.20;7.40;;;;;;;-1.41;100.00;99415.81;107205;1276;25403;-68
2023/02/22 06:50:22;;;;;;;12.10;7.60;;;;;;;-1.42;100.00;99411.64;107700;1273;22520;-68
2023/02/22 06:52:52;;;;;;;12.20;8.10;;;;;;;-1.44;100.00;99413.02;107421;1277;25375;-67
2023/02/22 06:55:22;;;;;;;8.90;5.90;;;;;;;-1.36;100.00;99420.84;107489;1277;22599;-67
2023/02/22 06:57:50;;;;;;;8.90;5.60;;;;;;;-1.40;100.00;99424.70;107602;1276;23290;-67
2023/02/22 07:00:20;;;;;;;11.70;6.00;;;;;;;-1.54;100.00;99424.95;107531;1276;25477;-67
2023/02/22 07:02:49;;;;;;;11.00;5.50;;;;;;;-1.53;100.00;99428.91;107427;1276;22517;-67
2023/02/22 07:05:18;;;;;;;9.40;5.30;;;;;;;-1.59;100.00;99425.35;107415;1276;23395;-67
2023/02/22 07:07:51;;;;;;;9.00;5.50;;;;;;;-1.67;100.00;99425.13;106733;1276;24077;-63
2023/02/22 07:10:25;;;;;;;8.00;5.30;;;;;;;-1.67;100.00;99433.13;110398;1274;22256;-68
2023/02/22 07:12:55;;;;;;;8.80;5.40;;;;;;;-1.65;100.00;99435.15;110295;1277;22273;-68
2023/02/22 07:15:26;;;;;;;8.20;4.80;;;;;;;-1.49;100.00;99437.83;110409;1276;22408;-65
2023/02/22 07:17:55;;;;;;;8.50;5.10;;;;;;;-1.45;100.00;99437.88;110369;1276;22251;-68
2023/02/22 07:20:25;;;;;;;9.20;6.00;;;;;;;-1.39;100.00;99442.86;110337;1276;22824;-68
2023/02/22 07:22:54;;;;;;;10.30;6.30;;;;;;;-1.41;100.00;99442.20;110212;1272;22307;-68
2023/02/22 07:25:22;;;;;;;10.40;6.20;;;;;;;-1.49;100.00;99442.89;110341;1270;22254;-68
2023/02/22 07:27:51;;;;;;;10.60;6.40;;;;;;;-1.44;100.00;99446.88;110337;1274;22378;-68
2023/02/22 07:30:24;;;;;;;11.50;6.60;;;;;;;-1.35;100.00;99450.50;110401;1271;22998;-69
2023/02/22 07:32:53;;;;;;;10.00;6.80;;;;;;;-1.27;100.00;99454.75;110442;1276;22401;-68
2023/02/22 07:35:24;;;;;;;11.10;7.10;;;;;;;-1.21;100.00;99455.18;110309;1276;22230;-67
2023/02/22 07:37:52;;;;;;;13.40;7.50;;;;;;;-1.16;100.00;99456.96;110354;1276;22211;-67
2023/02/22 07:40:24;;;;;;;12.00;7.30;;;;;;;-1.11;100.00;99465.30;110437;1276;22249;-67
2023/02/22 07:43:01;;;;;;;12.00;7.40;;;;;;;-1.08;100.00;99468.23;110409;1276;23134;-68
2023/02/22 07:45:32;;;;;;;13.80;8.80;;;;;;;-1.13;100.00;99475.17;110381;1273;22281;-68
2023/02/22 07:48:02;;;;;;;14.70;8.50;;;;;;;-1.14;100.00;99472.20;110336;1270;22288;-67
2023/02/22 07:50:31;;;;;;;12.10;8.00;;;;;;;-1.10;100.00;99473.44;110282;1277;22276;-67
2023/02/22 07:53:03;;;;;;;13.30;8.10;;;;;;;-1.07;100.00;99473.08;110146;1276;22284;-67
2023/02/22 07:55:33;;;;;;;13.00;7.80;;;;;;;-0.98;100.00;99476.34;110246;1277;22831;-68
2023/02/22 07:58:04;;;;;;;12.80;8.10;;;;;;;-0.95;100.00;99478.40;110316;1276;22249;-68
2023/02/22 08:00:34;;;;;;;13.20;8.20;;;;;;;-0.95;100.00;99477.86;110400;1276;22475;-67
2023/02/22 08:03:05;;;;;;;14.00;8.60;;;;;;;-0.88;100.00;99482.63;110422;1276;22449;-67
2023/02/22 08:05:34;;;;;;;11.00;7.40;;;;;;;-0.80;100.00;99487.29;110363;1275;22202;-67
2023/02/22 08:08:04;;;;;;;11.90;7.30;;;;;;;-0.80;100.00;99488.81;107581;1276;23999;-67
2023/02/22 08:10:34;;;;;;;12.20;8.00;;;;;;;-0.83;100.00;99486.27;107394;1276;22678;-66
2023/02/22 08:13:03;;;;;;;14.50;8.60;;;;;;;-0.82;100.00;99485.55;107428;1276;25358;-66
2023/02/22 08:15:37;;;;;;;9.70;7.00;;;;;;;-0.77;100.00;99490.25;107602;1277;26541;-66
2023/02/22 08:18:09;;;;;;;12.40;8.30;;;;;;;-0.79;100.00;99487.25;107406;1277;22557;-67
2023/02/22 08:20:38;;;;;;;12.70;8.40;;;;;;;-0.90;100.00;99489.33;107291;1277;25353;-67
2023/02/22 08:23:06;;;;;;;13.30;8.60;;;;;;;-0.96;100.00;99488.34;107327;1276;22516;-67
2023/02/22 08:25:35;;;;;;;14.00;9.10;;;;;;;-0.98;100.00;99492.38;107429;1276;22575;-67
2023/02/22 08:28:06;;;;;;;14.20;9.40;;;;;;;-1.11;100.00;99495.51;107635;1276;23261;-66
2023/02/22 08:30:35;;;;;;;12.70;8.50;;;;;;;-1.21;100.00;99497.38;107613;1274;24278;-67
2023/02/22 08:33:08;;;;;;;12.90;8.30;;;;;;;-1.20;100.00;99500.21;107476;1276;25366;-67
2023/02/22 08:35:39;;;;;;;12.00;7.20;;;;;;;-1.24;100.00;99497.45;108105;1276;22785;-67
2023/02/22 08:38:18;;;;;;;11.10;7.30;;;;;;;-1.29;100.00;99501.06;107550;1276;22564;-67
2023/02/22 08:40:46;;;;;;;10.50;6.00;;;;;;;-1.29;100.00;99500.07;107455;1276;22577;-68
2023/02/22 08:43:15;;;;;;;9.70;6.20;;;;;;;-1.25;100.00;99501.11;107475;1270;22562;-67
2023/02/22 08:45:44;;;;;;;10.40;6.60;;;;;;;-1.20;100.00;99504.01;107420;1276;22552;-68
2023/02/22 08:48:13;;;;;;;10.20;6.30;;;;;;;-1.21;100.00;99505.03;107603;1277;24386;-67
2023/02/22 08:50:42;;;;;;;8.90;5.60;;;;;;;-1.21;100.00;99500.09;107271;1276;22533;-68
2023/02/22 08:53:12;;;;;;;7.80;5.10;;;;;;;-1.10;100.00;99503.73;107167;1276;22566;-68
2023/02/22 08:55:44;;;;;;;9.40;6.10;;;;;;;-1.07;100.00;99506.66;107392;1276;26149;-68
2023/02/22 08:58:13;;;;;;;8.60;5.50;;;;;;;-1.15;100.00;99502.23;107260;1276;23864;-68
2023/02/22 09:00:43;;;;;;;9.00;6.10;;;;;;;-1.21;100.00;99502.23;107459;1270;23306;-67
2023/02/22 09:03:13;;;;;;;8.30;5.90;;;;;;;-1.21;100.00;99508.77;110348;1276;22235;-68
2023/02/22 09:05:42;;;;;;;12.30;6.00;;;;;;;-1.15;100.00;99508.45;110368;1276;22604;-69
2023/02/22 09:08:11;;;;;;;8.80;5.60;;;;;;;-1.04;100.00;99501.81;110426;1276;22192;-68
2023/02/22 09:10:39;;;;;;;10.40;6.10;;;;;;;-0.97;100.00;99505.23;110419;1276;22308;-68
2023/02/22 09:13:12;;;;;;;9.60;6.40;;;;;;;-0.89;100.00;99502.25;107917;1276;22640;-68
2023/02/22 09:15:41;;;;;;;9.20;5.60;;;;;;;-0.80;100.00;99503.54;107563;1276;23360;-68
2023/02/22 09:18:11;;;;;;;9.50;6.00;;;;;;;-0.69;100.00;99504.28;107509;1276;25360;-68
2023/02/22 09:20:40;;;;;;;8.70;5.90;;;;;;;-0.70;100.00;99505.07;108966;1276;22948;-68
2023/02/22 09:23:09;;;;;;;9.20;6.00;;;;;;;-0.75;100.00;99500.54;108833;1278;26160;-68
2023/02/22 09:25:39;;;;;;;12.60;7.30;;;;;;;-0.81;100.00;99505.75;107280;1277;24244;-68
2023/02/22 09:28:08;;;;;;;11.10;7.20;;;;;;;-0.83;100.00;99502.29;107206;1277;26660;-67
2023/02/22 09:30:36;;;;;;;11.00;6.50;;;;;;;-0.73;100.00;99504.48;107507;1273;22526;-68
2023/02/22 09:33:10;;;;;;;10.50;6.40;;;;;;;-0.67;100.00;99505.84;107636;1276;25524;-68
2023/02/22 09:35:41;;;;;;;11.50;7.10;;;;;;;-0.67;100.00;99508.77;107591;1270;22746;-66
2023/02/22 09:38:10;;;;;;;9.90;6.50;;;;;;;-0.71;100.00;99505.47;107676;1274;22596;-65
2023/02/22 09:40:44;;;;;;;12.80;6.50;;;;;;;-0.63;100.00;99510.82;107772;1274;25341;-69
2023/02/22 09:43:30;;;;;;;12.00;7.50;;;;;;;-0.60;100.00;99510.16;107417;1274;22755;-69
2023/02/22 09:46:04;;;;;;;11.00;6.70;;;;;;;-0.67;100.00;99510.69;107645;1275;26207;-68
2023/02/22 09:48:34;;;;;;;10.10;6.10;;;;;;;-0.68;100.00;99509.31;109939;1267;23159;-68
2023/02/22 09:51:03;;;;;;;8.40;5.80;;;;;;;-0.63;100.00;99510.99;110273;1275;22579;-68
2023/02/22 09:53:34;;;;;;;9.30;6.00;;;;;;;-0.51;100.00;99507.90;110303;1275;22731;-69
2023/02/22 09:56:10;;;;;;;11.30;6.30;;;;;;;-0.52;100.00;99505.73;110290;1276;22392;-67
2023/02/22 09:58:41;;;;;;;13.20;7.50;;;;;;;-0.52;100.00;99507.33;110308;1276;22253;-68
2023/02/22 10:01:31;;;;;;;8.80;5.20;;;;;;;-0.49;100.00;99501.45;110394;1275;22912;-68
2023/02/22 10:04:21;;;;;;;8.30;5.60;;;;;;;-0.52;100.00;99507.46;110382;1276;22199;-68
2023/02/22 10:06:51;;;;;;;;;;;;;;;-0.66;100.00;99499.27;110439;1271;22433;-68
2023/02/22 10:09:19;;;;;;;11.20;7.00;;;;;;;-0.85;100.00;99502.83;110431;1270;23181;-68
2023/02/22 10:12:25;;;;;;;10.00;6.50;;;;;;;-0.86;100.00;99500.52;110412;1269;22208;-68
2023/02/22 10:15:00;;;;;;;9.80;6.60;;;;;;;-0.65;100.00;99500.83;110398;1275;22180;-68
2023/02/22 10:17:36;;;;;;;10.10;5.90;;;;;;;-0.56;100.00;99500.38;110297;1276;22206;-67
2023/02/22 10:20:22;;;;;;;9.80;6.80;;;;;;;-0.57;100.00;99499.01;110243;1275;22329;-68
2023/02/22 10:22:55;;;;;;;10.60;6.40;;;;;;;-0.57;100.00;99500.34;110397;1274;22324;-67
2023/02/22 10:25:25;;;;;;;10.50;6.90;;;;;;;-0.48;100.00;99503.25;110298;1276;22200;-68
2023/02/22 10:27:58;;;;;;;9.50;6.40;;;;;;;-0.43;100.00;99498.15;110172;1275;22435;-68
2023/02/22 10:30:29;;;;;;;8.60;5.40;;;;;;;-0.40;100.00;99500.79;110329;1275;22218;-68
2023/02/22 10:33:25;;;;;;;10.90;6.70;;;;;;;-0.40;100.00;99504.89;110396;1275;22175;-68
2023/02/22 10:35:54;;;;;;;10.50;6.00;;;;;;;-0.38;100.00;99503.91;110318;1276;22284;-67
2023/02/22 10:38:25;;;;;;;10.00;6.20;;;;;;;-0.32;100.00;99498.48;110335;1275;22247;-68
2023/02/22 10:40:59;;;;;;;10.30;6.30;;;;;;;-0.26;100.00;99502.91;110418;1275;22278;-68
2023/02/22 10:43:28;;;;;;;9.00;5.70;;;;;;;-0.24;100.00;99491.63;110189;1273;22199;-68
2023/02/22 10:46:00;;;;;;;11.70;6.30;;;;;;;-0.31;100.00;99499.21;110304;1276;23047;-68
2023/02/22 10:48:29;;;;;;;9.60;5.20;;;;;;;-0.35;100.00;99492.22;110202;1275;22221;-68
2023/02/22 10:51:00;;;;;;;9.50;5.80;;;;;;;-0.28;100.00;99491.42;108224;1275;24057;-70
2023/02/22 10:53:29;;;;;;;8.70;5.30;;;;;;;-0.27;100.00;99491.30;107421;1275;22514;-67
2023/02/22 10:56:14;;;;;;;8.70;5.20;;;;;;;-0.25;100.00;99495.79;107486;1275;23044;-68
2023/02/22 10:59:06;;;;;;;11.90;6.70;;;;;;;-0.27;100.00;99492.08;107541;1275;23329;-67
2023/02/22 11:01:37;;;;;;;10.30;5.70;;;;;;;-0.33;100.00;99494.98;107647;1275;25031;-68
2023/02/22 11:04:08;;;;;;;6.70;4.60;;;;;;;-0.35;100.00;99494.36;107663;1276;25131;-67
2023/02/22 11:06:37;;;;;;;6.60;4.20;;;;;;;-0.27;100.00;99493.81;107684;1275;25028;-66
2023/02/22 11:09:14;;;;;;;5.70;4.10;;;;;;;-0.28;100.00;99497.20;107380;1275;24367;-68
2023/02/22 11:11:45;;;;;;;6.30;4.20;;;;;;;-0.35;100.00;99503.04;107638;1274;22595;-67
2023/02/22 11:14:27;;;;;;;6.50;4.40;;;;;;;-0.47;100.00;99502.71;107537;1275;23260;-68
2023/02/22 11:16:56;;;;;;;7.40;4.70;;;;;;;-0.53;100.00;99501.86;107779;1276;23362;-68
2023/02/22 11:19:26;;;;;;;8.10;5.20;;;;;;;-0.55;100.00;99504.69;107497;1275;25221;-68
2023/02/22 11:22:02;;;;;;;9.00;5.50;;;;;;;-0.51;100.00;99506.67;107776;1275;23589;-68
2023/02/22 11:24:31;;;;;;;6.90;4.10;;;;;;;-0.52;100.00;99509.30;107484;1276;25350;-67
2023/02/22 11:27:36;;;;;;;7.90;4.60;;;;;;;-0.55;100.00;99510.86;107680;1274;22537;-68
2023/02/22 11:30:14;;;;;;;7.60;4.90;;;;;;;-0.47;100.00;99515.06;107738;1273;22568;-69
2023/02/22 11:32:52;;;;;;;7.70;5.00;;;;;;;-0.43;100.00;99515.64;107817;1273;24277;-67
2023/02/22 11:35:27;;;;;;;7.70;5.00;;;;;;;-0.42;100.00;99517.04;107726;1270;24195;-67
2023/02/22 11:38:17;;;;;;;7.20;4.70;;;;;;;-0.40;100.00;99518.73;107627;1275;26524;-67
2023/02/22 11:40:47;;;;;;;10.00;5.80;;;;;;;-0.41;100.00;99520.33;107713;1275;26494;-67